Green Fast — ZDHA9 — position and weather

sailwx.info

Track history (hours):
 
Tides and Currents Weather Stations Pressure Air Temp Water Temp Dewpoint Dewpoint Depression Visibility Wind Speed Wind Dir Waves Ship Positions

Green Fast

Last reported at 2015-Apr-22 14:16 UTC. Time now 2015-Apr-28 05:23 UTC.
Position N 36°50' E 010°26'.

Length 118 m; draft 6.5 m.

Type: Cargo ship. MMSI: 236294000.

Date/timePositionNaut miles runAvg speedWind from/ knotsBaromVisibWave heightAir tempDewpointWater temp
2015-Apr-22 14:16N 36°50' E 010°26'0 0.0
2015-Apr-22 06:28N 36°50' E 010°26'  
2015-Apr-18 00:04N 37°13' E 010°48'49 7.5
2015-Apr-17 17:33N 37°08' E 011°49'10 9.9
2015-Apr-17 16:33N 37°02' E 011°59'10 9.7
2015-Apr-17 15:33N 36°57' E 012°09'10 9.9
2015-Apr-17 14:33N 36°51' E 012°19'1010.1
2015-Apr-17 13:33N 36°46' E 012°30'1010.2
2015-Apr-17 12:33N 36°40' E 012°41'1010.3
2015-Apr-17 11:33N 36°35' E 012°52'1010.1
2015-Apr-17 10:33N 36°29' E 013°02'12 9.9
2015-Apr-17 09:21N 36°23' E 013°15'810.0
2015-Apr-17 08:33N 36°18' E 013°23'10 9.9
2015-Apr-17 07:32N 36°13' E 013°33'1110.3
2015-Apr-17 06:28N 36°07' E 013°45'42 5.2
2015-Apr-16 22:18N 35°49' E 014°32'0 0.0
2015-Apr-16 21:12N 35°49' E 014°32'0 0.0
2015-Apr-16 20:15N 35°49' E 014°32'0 0.0
2015-Apr-16 19:03N 35°49' E 014°32'0 0.0
2015-Apr-16 11:30N 35°49' E 014°32'5 5.1
2015-Apr-16 10:33N 35°50' E 014°38'1 0.6
2015-Apr-16 09:31N 35°50' E 014°39'0 0.0
2015-Apr-16 08:31N 35°50' E 014°39'0 0.0
2015-Apr-16 07:31N 35°50' E 014°39'0 0.0
2015-Apr-16 06:28N 35°50' E 014°39'0 0.0
2015-Apr-16 05:31N 35°50' E 014°39'0 0.1
2015-Apr-16 04:31N 35°50' E 014°39'0 0.0
2015-Apr-16 03:31N 35°50' E 014°39'0 0.0
2015-Apr-16 02:28N 35°50' E 014°39'0 0.0
2015-Apr-16 01:31N 35°50' E 014°39'0 0.0
2015-Apr-16 00:31N 35°50' E 014°39'0 0.0
2015-Apr-15 23:22N 35°50' E 014°39'0 0.0
2015-Apr-15 22:31N 35°50' E 014°39'0 0.0
2015-Apr-15 21:31N 35°50' E 014°39'0 0.0
2015-Apr-15 20:31N 35°50' E 014°39'0 0.0
2015-Apr-15 19:31N 35°50' E 014°39'0 0.0
2015-Apr-15 18:31N 35°50' E 014°39'0 0.0
2015-Apr-15 17:31N 35°50' E 014°39'0 0.1
2015-Apr-15 16:31N 35°50' E 014°39'0 0.0
2015-Apr-15 15:28N 35°50' E 014°39'0 0.0
2015-Apr-15 14:31N 35°50' E 014°39'0 0.0
2015-Apr-15 13:31N 35°50' E 014°39'0 0.0
2015-Apr-15 12:31N 35°50' E 014°39'0 0.0
2015-Apr-15 10:28N 35°50' E 014°39'0 0.0
2015-Apr-15 09:31N 35°50' E 014°39'0 0.0
2015-Apr-15 08:31N 35°50' E 014°39'0 0.0
2015-Apr-15 07:31N 35°50' E 014°39'0 0.0
2015-Apr-15 06:31N 35°50' E 014°39'0 0.0
2015-Apr-15 05:31N 35°50' E 014°39'0 0.1
2015-Apr-15 04:31N 35°50' E 014°39'0 0.0
2015-Apr-15 03:33N 35°50' E 014°39'7 6.3
2015-Apr-15 02:25N 35°45' E 014°33'1111.6
2015-Apr-15 01:27N 35°48' E 014°20'1112.3
2015-Apr-15 00:33N 35°53' E 014°08'1212.2
2015-Apr-14 23:33N 35°60' E 013°55'1212.2
2015-Apr-14 22:33N 36°06' E 013°42'1312.4
2015-Apr-14 21:32N 36°13' E 013°29'1212.2
2015-Apr-14 20:33N 36°19' E 013°17'1212.4
2015-Apr-14 19:33N 36°26' E 013°04'1211.8
2015-Apr-14 18:33N 36°32' E 012°51'1211.8
2015-Apr-14 17:33N 36°38' E 012°39'1212.1
2015-Apr-14 16:33N 36°45' E 012°26'1212.2
2015-Apr-14 15:33N 36°51' E 012°13'1212.3
2015-Apr-14 14:34N 36°57' E 011°60'1212.4
2015-Apr-14 13:33N 37°04' E 011°47'21111.6
2015-Apr-13 19:23N 37°20' E 007°22'1010.5
2015-Apr-13 18:28N 37°20' E 007°10'1111.4
2015-Apr-13 17:29N 37°20' E 006°56'1110.5
2015-Apr-13 16:27N 37°20' E 006°42'1111.1
2015-Apr-13 15:27N 37°20' E 006°29'1311.6
2015-Apr-13 14:22N 37°19' E 006°13'1011.6
2015-Apr-13 13:29N 37°17' E 006°00'5911.8
2015-Apr-13 08:29N 37°12' E 004°47'1211.7
2015-Apr-13 07:26N 37°11' E 004°31'1011.6
2015-Apr-13 06:32N 37°09' E 004°18'3411.3
2015-Apr-13 03:33N 37°05' E 003°36'1212.3
2015-Apr-13 02:33N 37°02' E 003°22'1211.6
2015-Apr-13 01:33N 36°54' E 003°10'10 9.9
2015-Apr-13 00:33N 36°46' E 003°04'0 0.3
2015-Apr-12 23:33N 36°46' E 003°04'0 0.0
2015-Apr-12 22:33N 36°46' E 003°04'0 0.0
2015-Apr-12 21:33N 36°46' E 003°04'  
Track history (hours):
 
Tides and Currents Weather Stations Pressure Air Temp Water Temp Dewpoint Dewpoint Depression Visibility Wind Speed Wind Dir Waves Ship Positions

Green Fast

Last reported at 2015-Apr-22 14:16 UTC. Time now 2015-Apr-28 05:23 UTC.
Position N 36°50' E 010°26'.

Length 118 m; draft 6.5 m.

Type: Cargo ship. MMSI: 236294000.

Date/timePositionNaut miles runAvg speedWind from/ knotsBaromVisibWave heightAir tempDewpointWater temp
2015-Apr-22 14:16N 36°50' E 010°26'0 0.0
2015-Apr-22 06:28N 36°50' E 010°26'  
2015-Apr-18 00:04N 37°13' E 010°48'49 7.5
2015-Apr-17 17:33N 37°08' E 011°49'10 9.9
2015-Apr-17 16:33N 37°02' E 011°59'10 9.7
2015-Apr-17 15:33N 36°57' E 012°09'10 9.9
2015-Apr-17 14:33N 36°51' E 012°19'1010.1
2015-Apr-17 13:33N 36°46' E 012°30'1010.2
2015-Apr-17 12:33N 36°40' E 012°41'1010.3
2015-Apr-17 11:33N 36°35' E 012°52'1010.1
2015-Apr-17 10:33N 36°29' E 013°02'12 9.9
2015-Apr-17 09:21N 36°23' E 013°15'810.0
2015-Apr-17 08:33N 36°18' E 013°23'10 9.9
2015-Apr-17 07:32N 36°13' E 013°33'1110.3
2015-Apr-17 06:28N 36°07' E 013°45'42 5.2
2015-Apr-16 22:18N 35°49' E 014°32'0 0.0
2015-Apr-16 21:12N 35°49' E 014°32'0 0.0
2015-Apr-16 20:15N 35°49' E 014°32'0 0.0
2015-Apr-16 19:03N 35°49' E 014°32'0 0.0
2015-Apr-16 11:30N 35°49' E 014°32'5 5.1
2015-Apr-16 10:33N 35°50' E 014°38'1 0.6
2015-Apr-16 09:31N 35°50' E 014°39'0 0.0
2015-Apr-16 08:31N 35°50' E 014°39'0 0.0
2015-Apr-16 07:31N 35°50' E 014°39'0 0.0
2015-Apr-16 06:28N 35°50' E 014°39'0 0.0
2015-Apr-16 05:31N 35°50' E 014°39'0 0.1
2015-Apr-16 04:31N 35°50' E 014°39'0 0.0
2015-Apr-16 03:31N 35°50' E 014°39'0 0.0
2015-Apr-16 02:28N 35°50' E 014°39'0 0.0
2015-Apr-16 01:31N 35°50' E 014°39'0 0.0
2015-Apr-16 00:31N 35°50' E 014°39'0 0.0
2015-Apr-15 23:22N 35°50' E 014°39'0 0.0
2015-Apr-15 22:31N 35°50' E 014°39'0 0.0
2015-Apr-15 21:31N 35°50' E 014°39'0 0.0
2015-Apr-15 20:31N 35°50' E 014°39'0 0.0
2015-Apr-15 19:31N 35°50' E 014°39'0 0.0
2015-Apr-15 18:31N 35°50' E 014°39'0 0.0
2015-Apr-15 17:31N 35°50' E 014°39'0 0.1
2015-Apr-15 16:31N 35°50' E 014°39'0 0.0
2015-Apr-15 15:28N 35°50' E 014°39'0 0.0
2015-Apr-15 14:31N 35°50' E 014°39'0 0.0
2015-Apr-15 13:31N 35°50' E 014°39'0 0.0
2015-Apr-15 12:31N 35°50' E 014°39'0 0.0
2015-Apr-15 10:28N 35°50' E 014°39'0 0.0
2015-Apr-15 09:31N 35°50' E 014°39'0 0.0
2015-Apr-15 08:31N 35°50' E 014°39'0 0.0
2015-Apr-15 07:31N 35°50' E 014°39'0 0.0
2015-Apr-15 06:31N 35°50' E 014°39'0 0.0
2015-Apr-15 05:31N 35°50' E 014°39'0 0.1
2015-Apr-15 04:31N 35°50' E 014°39'0 0.0
2015-Apr-15 03:33N 35°50' E 014°39'7 6.3
2015-Apr-15 02:25N 35°45' E 014°33'1111.6
2015-Apr-15 01:27N 35°48' E 014°20'1112.3
2015-Apr-15 00:33N 35°53' E 014°08'1212.2
2015-Apr-14 23:33N 35°60' E 013°55'1212.2
2015-Apr-14 22:33N 36°06' E 013°42'1312.4
2015-Apr-14 21:32N 36°13' E 013°29'1212.2
2015-Apr-14 20:33N 36°19' E 013°17'1212.4
2015-Apr-14 19:33N 36°26' E 013°04'1211.8
2015-Apr-14 18:33N 36°32' E 012°51'1211.8
2015-Apr-14 17:33N 36°38' E 012°39'1212.1
2015-Apr-14 16:33N 36°45' E 012°26'1212.2
2015-Apr-14 15:33N 36°51' E 012°13'1212.3
2015-Apr-14 14:34N 36°57' E 011°60'1212.4
2015-Apr-14 13:33N 37°04' E 011°47'21111.6
2015-Apr-13 19:23N 37°20' E 007°22'1010.5
2015-Apr-13 18:28N 37°20' E 007°10'1111.4
2015-Apr-13 17:29N 37°20' E 006°56'1110.5
2015-Apr-13 16:27N 37°20' E 006°42'1111.1
2015-Apr-13 15:27N 37°20' E 006°29'1311.6
2015-Apr-13 14:22N 37°19' E 006°13'1011.6
2015-Apr-13 13:29N 37°17' E 006°00'5911.8
2015-Apr-13 08:29N 37°12' E 004°47'1211.7
2015-Apr-13 07:26N 37°11' E 004°31'1011.6
2015-Apr-13 06:32N 37°09' E 004°18'3411.3
2015-Apr-13 03:33N 37°05' E 003°36'1212.3
2015-Apr-13 02:33N 37°02' E 003°22'1211.6
2015-Apr-13 01:33N 36°54' E 003°10'10 9.9
2015-Apr-13 00:33N 36°46' E 003°04'0 0.3
2015-Apr-12 23:33N 36°46' E 003°04'0 0.0
2015-Apr-12 22:33N 36°46' E 003°04'0 0.0
2015-Apr-12 21:33N 36°46' E 003°04'  

Dump ship's entire track history